createdAt,value
2019-03-06T00:00:49.445Z,98030.67
2019-03-06T00:05:58.081Z,98022.44
2019-03-06T00:11:03.449Z,98009.11
2019-03-06T00:16:08.925Z,98007.95
2019-03-06T00:21:14.249Z,98015.48
2019-03-06T00:26:20.967Z,98006.73
2019-03-06T00:31:26.257Z,98006.63
2019-03-06T00:36:33.237Z,98000.22
2019-03-06T00:41:43.966Z,97996.48
2019-03-06T00:46:49.181Z,97995.88
2019-03-06T00:51:54.381Z,97994.66
2019-03-06T00:56:59.843Z,97982.98
2019-03-06T01:02:05.423Z,97977.10
2019-03-06T01:07:11.529Z,97979.05
2019-03-06T01:12:16.877Z,97980.38
2019-03-06T01:17:22.145Z,97966.66
2019-03-06T01:22:27.553Z,97965.70
2019-03-06T01:27:32.861Z,97964.14
2019-03-06T01:32:38.252Z,97962.23
2019-03-06T01:38:08.557Z,97962.49
2019-03-06T01:43:21.256Z,97950.72
2019-03-06T01:48:26.584Z,97944.70
2019-03-06T01:53:31.955Z,97938.09
2019-03-06T01:58:37.580Z,97940.46
2019-03-06T02:03:43.642Z,97932.50
2019-03-06T02:08:49.359Z,97930.05
2019-03-06T02:13:54.590Z,97932.44
2019-03-06T02:19:03.074Z,97924.82
2019-03-06T02:24:08.302Z,97926.65
2019-03-06T02:29:14.796Z,97916.28
2019-03-06T02:34:20.092Z,97915.81
2019-03-06T02:39:26.737Z,97906.08
2019-03-06T02:44:33.352Z,97899.34
2019-03-06T02:49:39.180Z,97883.70
2019-03-06T02:54:44.499Z,97878.73
2019-03-06T03:00:22.407Z,97867.59
2019-03-06T03:05:40.111Z,97851.58
2019-03-06T03:10:45.307Z,97846.89
2019-03-06T03:15:50.623Z,97851.22
2019-03-06T03:20:56.585Z,97833.08
2019-03-06T03:26:01.774Z,97835.72
2019-03-06T03:31:07.149Z,97833.08
2019-03-06T03:36:12.339Z,97827.42
2019-03-06T03:41:17.664Z,97826.22
2019-03-06T03:46:23.389Z,97824.90
2019-03-06T03:51:31.373Z,97823.20
2019-03-06T03:56:36.670Z,97812.73
2019-03-06T04:01:42.469Z,97807.33
2019-03-06T04:06:47.976Z,97804.70
2019-03-06T04:11:55.288Z,97810.36
2019-03-06T04:17:01.811Z,97804.58
2019-03-06T04:22:08.107Z,97803.84
2019-03-06T04:27:13.320Z,97789.66
2019-03-06T04:32:19.941Z,97791.35
2019-03-06T04:37:27.511Z,97778.23
2019-03-06T04:42:32.858Z,97773.91
2019-03-06T04:47:38.180Z,97772.70
2019-03-06T04:52:43.726Z,97767.55
2019-03-06T04:57:50.578Z,97763.42
2019-03-06T05:02:57.982Z,97766.42
2019-03-06T05:08:03.187Z,97773.04
2019-03-06T05:13:09.801Z,97798.28
2019-03-06T05:18:25.182Z,97768.20
2019-03-06T05:23:30.577Z,97763.52
2019-03-06T05:28:35.959Z,97746.34
2019-03-06T05:33:43.215Z,97729.77
2019-03-06T05:39:04.306Z,97712.19
2019-03-06T05:44:11.376Z,97704.39
2019-03-06T05:49:16.627Z,97700.53
2019-03-06T05:54:22.177Z,97691.78
2019-03-06T05:59:29.177Z,97679.62
2019-03-06T06:04:34.381Z,97663.53
2019-03-06T06:09:41.180Z,97658.59
2019-03-06T06:14:47.051Z,97649.22
2019-03-06T06:19:55.362Z,97644.68
2019-03-06T06:25:00.732Z,97637.30
2019-03-06T06:30:08.612Z,97623.13
2019-03-06T06:35:17.080Z,97624.05
2019-03-06T06:40:22.898Z,97630.55
2019-03-06T06:45:28.457Z,97634.16
2019-03-06T06:50:35.290Z,97623.79
2019-03-06T06:55:52.977Z,97620.98
2019-03-06T07:01:45.410Z,97605.20
2019-03-06T07:07:11.395Z,97608.41
2019-03-06T07:12:21.770Z,97618.95
2019-03-06T07:17:32.819Z,97601.65
2019-03-06T07:22:52.717Z,97599.14
2019-03-06T07:28:14.263Z,97599.81
2019-03-06T07:33:37.222Z,97595.20
2019-03-06T07:38:43.009Z,97596.33
2019-03-06T07:44:06.358Z,97594.89
2019-03-06T07:49:44.647Z,97583.05
2019-03-06T07:55:53.885Z,97583.00
2019-03-06T08:00:59.267Z,97583.42
2019-03-06T08:06:04.572Z,97588.91
2019-03-06T08:11:15.521Z,97578.55
2019-03-06T08:16:31.518Z,97579.37
2019-03-06T08:22:07.536Z,97572.30
2019-03-06T08:27:12.791Z,97560.80
2019-03-06T08:32:29.766Z,97549.91
2019-03-06T08:37:34.977Z,97548.45
2019-03-06T08:42:40.322Z,97539.95
2019-03-06T08:47:57.054Z,97540.86
2019-03-06T08:53:19.800Z,97533.44
2019-03-06T08:58:42.713Z,97508.36
2019-03-06T09:03:57.905Z,97498.78
2019-03-06T09:09:24.889Z,97491.81
2019-03-06T09:14:53.078Z,97491.06
2019-03-06T09:20:16.330Z,97487.05
2019-03-06T09:25:38.545Z,97474.06
2019-03-06T09:31:05.928Z,97469.15
2019-03-06T09:36:27.350Z,97466.41
2019-03-06T09:41:51.663Z,97449.28
2019-03-06T09:47:12.507Z,97439.39
2019-03-06T09:52:36.708Z,97419.89
2019-03-06T09:57:51.939Z,97406.19
2019-03-06T10:03:14.643Z,97392.14
2019-03-06T10:08:37.541Z,97383.68
2019-03-06T10:13:52.214Z,97376.97
2019-03-06T10:19:13.190Z,97366.16
2019-03-06T10:24:18.369Z,97366.16
2019-03-06T10:29:23.645Z,97361.16
2019-03-06T10:34:28.946Z,97354.34
2019-03-06T10:39:34.701Z,97344.22
2019-03-06T10:44:40.011Z,97332.42
2019-03-06T10:49:45.415Z,97322.53
2019-03-06T10:54:50.884Z,97309.23
2019-03-06T10:59:56.917Z,97301.27
2019-03-06T11:05:13.943Z,97305.33
2019-03-06T11:10:23.757Z,97291.98
2019-03-06T11:15:28.495Z,97283.97
2019-03-06T11:20:35.937Z,97277.16
2019-03-06T11:25:41.927Z,97266.74
2019-03-06T11:30:50.563Z,97262.08
2019-03-06T11:35:56.815Z,97251.52
2019-03-06T11:41:02.748Z,97239.39
2019-03-06T11:46:10.288Z,97227.08
2019-03-06T11:51:15.953Z,97231.91
2019-03-06T11:56:21.227Z,97239.88
2019-03-06T12:01:29.437Z,97230.83
2019-03-06T12:06:35.177Z,97219.42
2019-03-06T12:11:40.484Z,97218.33
2019-03-06T12:16:45.714Z,97220.19
2019-03-06T12:21:51.270Z,97205.87
2019-03-06T12:26:58.454Z,97187.08
2019-03-06T12:32:05.261Z,97176.28
2019-03-06T12:37:10.933Z,97171.20
2019-03-06T12:42:16.956Z,97161.43
2019-03-06T12:47:22.338Z,97158.66
2019-03-06T12:52:27.980Z,97149.41
2019-03-06T12:57:34.015Z,97140.41
2019-03-06T13:02:39.280Z,97127.67
2019-03-06T13:07:44.796Z,97124.41
2019-03-06T13:12:51.007Z,97101.02
2019-03-06T13:17:57.141Z,97086.86
2019-03-06T13:23:04.202Z,97084.84
2019-03-06T13:28:09.765Z,97081.42
2019-03-06T13:33:41.109Z,97072.75
2019-03-06T13:38:54.671Z,97064.59
2019-03-06T13:43:55.123Z,97061.92
2019-03-06T13:49:01.058Z,97052.65
2019-03-06T13:54:06.290Z,97061.56
2019-03-06T13:59:11.649Z,97049.72
2019-03-06T14:04:17.427Z,97043.61
2019-03-06T14:09:22.953Z,97038.94
2019-03-06T14:14:28.672Z,97044.22
2019-03-06T14:19:34.199Z,97029.49
2019-03-06T14:24:40.253Z,97032.17
2019-03-06T14:29:46.637Z,97028.92
2019-03-06T14:34:52.551Z,97023.34
2019-03-06T14:39:59.474Z,97031.32
2019-03-06T14:45:05.734Z,97034.45
2019-03-06T14:50:12.103Z,97040.62
2019-03-06T14:55:17.381Z,97012.86
2019-03-06T15:00:22.902Z,97004.43
2019-03-06T15:05:28.558Z,96996.47
2019-03-06T15:10:42.554Z,96983.03
2019-03-06T15:15:41.343Z,96966.14
2019-03-06T15:20:47.012Z,96959.94
2019-03-06T15:25:52.609Z,96960.59
2019-03-06T15:30:59.858Z,96966.47
2019-03-06T15:36:06.428Z,96955.91
2019-03-06T15:41:12.358Z,96946.61
2019-03-06T15:46:17.601Z,96945.36
2019-03-06T15:51:22.850Z,96940.01
2019-03-06T15:56:28.625Z,96940.97
2019-03-06T16:01:34.228Z,96933.38
2019-03-06T16:06:39.448Z,96924.44
2019-03-06T16:11:46.579Z,96928.75
2019-03-06T16:16:52.836Z,96926.62
2019-03-06T16:21:58.394Z,96920.83
2019-03-06T16:27:12.162Z,96914.89
2019-03-06T16:32:18.381Z,96908.08
2019-03-06T16:37:24.031Z,96905.55
2019-03-06T16:42:29.470Z,96901.44
2019-03-06T16:47:35.326Z,96904.33
2019-03-06T16:52:40.758Z,96908.19
2019-03-06T16:57:47.782Z,96904.23
2019-03-06T17:02:53.115Z,96902.16
2019-03-06T17:07:59.029Z,96903.59
2019-03-06T17:13:04.810Z,96921.02
2019-03-06T17:18:10.982Z,96924.88
2019-03-06T17:23:16.274Z,96926.28
2019-03-06T17:28:21.621Z,96910.70
2019-03-06T17:33:27.429Z,96912.87
2019-03-06T17:38:32.796Z,96895.81
2019-03-06T17:43:38.118Z,96899.72
2019-03-06T17:48:44.312Z,96905.53
2019-03-06T17:53:49.899Z,96907.13
2019-03-06T17:58:55.501Z,96909.33
2019-03-06T18:04:20.652Z,96909.28
2019-03-06T18:09:26.156Z,96894.44
2019-03-06T18:14:31.647Z,96888.39
2019-03-06T18:19:37.818Z,96884.05
2019-03-06T18:24:43.039Z,96880.27
2019-03-06T18:29:48.243Z,96878.11
2019-03-06T18:34:53.843Z,96881.00
2019-03-06T18:39:59.199Z,96886.88
2019-03-06T18:45:07.275Z,96873.39
2019-03-06T18:50:15.631Z,96873.28
2019-03-06T18:55:20.944Z,96852.06
2019-03-06T19:00:26.348Z,96837.13
2019-03-06T19:05:31.790Z,96829.05
2019-03-06T19:10:38.181Z,96821.61
2019-03-06T19:15:43.636Z,96802.95
2019-03-06T19:20:49.479Z,96798.78
2019-03-06T19:25:55.490Z,96793.98
2019-03-06T19:31:00.940Z,96792.16
2019-03-06T19:36:06.510Z,96781.95
2019-03-06T19:41:12.972Z,96783.66
2019-03-06T19:46:19.250Z,96792.09
2019-03-06T19:51:25.083Z,96794.25
2019-03-06T19:56:30.695Z,96793.69
2019-03-06T20:01:36.521Z,96796.20
2019-03-06T20:06:42.366Z,96785.72
2019-03-06T20:11:47.995Z,96788.47
2019-03-06T20:16:54.111Z,96779.55
2019-03-06T20:22:02.039Z,96766.56
2019-03-06T20:27:07.644Z,96758.88
2019-03-06T20:32:13.033Z,96747.34
2019-03-06T20:37:18.310Z,96738.85
2019-03-06T20:42:23.965Z,96735.84
2019-03-06T20:47:30.053Z,96742.16
2019-03-06T20:52:35.337Z,96726.17
2019-03-06T20:57:40.792Z,96731.79
2019-03-06T21:02:46.537Z,96724.16
2019-03-06T21:07:54.154Z,96727.72
2019-03-06T21:12:59.440Z,96720.08
2019-03-06T21:18:04.736Z,96731.50
2019-03-06T21:23:10.432Z,96726.58
2019-03-06T21:28:15.879Z,96711.56
2019-03-06T21:33:22.066Z,96709.36
2019-03-06T21:38:28.073Z,96698.76
2019-03-06T21:43:33.390Z,96700.14
2019-03-06T21:48:39.658Z,96696.38
2019-03-06T21:53:45.235Z,96688.73
2019-03-06T21:58:50.867Z,96683.88
2019-03-06T22:03:57.933Z,96677.37
2019-03-06T22:09:05.373Z,96679.40
2019-03-06T22:14:13.209Z,96686.80
2019-03-06T22:19:18.922Z,96675.07
2019-03-06T22:24:24.330Z,96669.37
2019-03-06T22:29:29.546Z,96663.56
2019-03-06T22:34:35.043Z,96658.77
2019-03-06T22:39:41.887Z,96659.34
2019-03-06T22:44:47.199Z,96656.42
2019-03-06T22:49:53.388Z,96651.38
2019-03-06T22:54:58.688Z,96643.36
2019-03-06T23:00:05.843Z,96636.16
2019-03-06T23:05:12.315Z,96632.84
2019-03-06T23:10:17.724Z,96620.51
2019-03-06T23:15:23.656Z,96613.15
2019-03-06T23:20:28.801Z,96611.96
2019-03-06T23:25:34.061Z,96605.08
2019-03-06T23:30:39.930Z,96604.06
2019-03-06T23:35:51.251Z,96584.84
2019-03-06T23:40:57.580Z,96587.92
2019-03-06T23:46:02.937Z,96581.57
2019-03-06T23:51:22.020Z,96580.35
2019-03-06T23:56:28.183Z,96568.86
